createdAt,value
2022-09-24T00:02:06.788Z,98294.78
2022-09-24T00:04:35.771Z,98291.72
2022-09-24T00:07:03.813Z,98289.94
2022-09-24T00:09:31.843Z,98300.19
2022-09-24T00:12:00.851Z,98293.00
2022-09-24T00:14:29.715Z,98280.78
2022-09-24T00:16:57.652Z,98276.66
2022-09-24T00:19:26.975Z,98283.81
2022-09-24T00:21:55.026Z,98284.53
2022-09-24T00:24:40.606Z,98277.16
2022-09-24T00:27:08.569Z,98279.63
2022-09-24T00:29:36.745Z,98277.13
2022-09-24T00:32:06.192Z,98275.38
2022-09-24T00:34:35.639Z,98268.28
2022-09-24T00:37:03.715Z,98259.94
2022-09-24T00:39:34.030Z,98261.19
2022-09-24T00:42:02.026Z,98248.59
2022-09-24T00:44:54.047Z,98252.03
2022-09-24T00:47:27.785Z,98254.63
2022-09-24T00:50:00.104Z,98244.28
2022-09-24T00:52:30.261Z,98245.41
2022-09-24T00:54:58.287Z,98245.16
2022-09-24T00:57:28.850Z,98237.63
2022-09-24T00:59:57.313Z,98236.81
2022-09-24T01:02:25.363Z,98209.78
2022-09-24T01:04:56.645Z,98228.22
2022-09-24T01:07:26.424Z,98234.72
2022-09-24T01:09:54.500Z,98232.31
2022-09-24T01:12:28.277Z,98233.16
2022-09-24T01:15:04.941Z,98233.84
2022-09-24T01:17:37.897Z,98233.28
2022-09-24T01:20:24.408Z,98234.47
2022-09-24T01:23:04.232Z,98224.91
2022-09-24T01:25:37.275Z,98218.38
2022-09-24T01:28:14.633Z,98211.50
2022-09-24T01:30:44.073Z,98206.69
2022-09-24T01:33:17.019Z,98208.97
2022-09-24T01:35:46.205Z,98208.81
2022-09-24T01:38:16.052Z,98222.38
2022-09-24T01:40:44.791Z,98223.88
2022-09-24T01:43:14.583Z,98213.22
2022-09-24T01:45:44.842Z,98212.81
2022-09-24T01:48:13.313Z,98210.16
2022-09-24T01:50:47.079Z,98215.50
2022-09-24T01:53:17.718Z,98217.59
2022-09-24T01:55:49.606Z,98211.66
2022-09-24T01:58:22.280Z,98218.13
2022-09-24T02:00:55.050Z,98217.19
2022-09-24T02:03:25.255Z,98208.63
2022-09-24T02:05:58.319Z,98204.72
2022-09-24T02:08:30.388Z,98204.03
2022-09-24T02:11:02.167Z,98193.25
2022-09-24T02:13:32.295Z,98192.47
2022-09-24T02:16:03.266Z,98191.69
2022-09-24T02:18:35.655Z,98207.94
2022-09-24T02:21:07.448Z,98201.34
2022-09-24T02:23:37.520Z,98195.44
2022-09-24T02:26:07.929Z,98189.22
2022-09-24T02:28:35.933Z,98201.78
2022-09-24T02:31:06.746Z,98193.09
2022-09-24T02:33:53.853Z,98192.94
2022-09-24T02:36:24.937Z,98192.88
2022-09-24T02:38:52.961Z,98191.69
2022-09-24T02:41:23.918Z,98187.44
2022-09-24T02:43:51.914Z,98180.66
2022-09-24T02:46:21.681Z,98177.13
2022-09-24T02:48:49.757Z,98201.19
2022-09-24T02:51:17.750Z,98206.75
2022-09-24T02:53:45.682Z,98211.66
2022-09-24T02:56:13.688Z,98212.03
2022-09-24T02:58:43.073Z,98216.25
2022-09-24T03:01:11.052Z,98209.22
2022-09-24T03:03:40.872Z,98209.06
2022-09-24T03:06:08.982Z,98202.50
2022-09-24T03:08:37.012Z,98202.78
2022-09-24T03:11:07.339Z,98190.59
2022-09-24T03:13:35.306Z,98191.13
2022-09-24T03:16:03.586Z,98183.25
2022-09-24T03:18:31.597Z,98176.66
2022-09-24T03:21:02.221Z,98183.94
2022-09-24T03:23:30.236Z,98181.81
2022-09-24T03:25:58.970Z,98190.84
2022-09-24T03:28:27.512Z,98187.91
2022-09-24T03:30:59.879Z,98177.47
2022-09-24T03:33:28.537Z,98182.59
2022-09-24T03:35:57.127Z,98179.06
2022-09-24T03:38:26.947Z,98183.44
2022-09-24T03:40:54.984Z,98185.31
2022-09-24T03:43:23.159Z,98182.47
2022-09-24T03:45:51.156Z,98191.19
2022-09-24T03:48:19.962Z,98196.03
2022-09-24T03:50:48.541Z,98199.56
2022-09-24T03:53:16.747Z,98195.31
2022-09-24T03:55:46.726Z,98183.34
2022-09-24T03:58:15.508Z,98185.81
2022-09-24T04:00:43.555Z,98189.47
2022-09-24T04:03:11.587Z,98188.00
2022-09-24T04:05:40.099Z,98177.25
2022-09-24T04:08:10.171Z,98177.59
2022-09-24T04:10:40.524Z,98174.63
2022-09-24T04:13:09.829Z,98171.84
2022-09-24T04:15:37.792Z,98176.94
2022-09-24T04:18:05.881Z,98172.84
2022-09-24T04:20:34.664Z,98172.09
2022-09-24T04:23:03.251Z,98169.03
2022-09-24T04:25:32.112Z,98170.56
2022-09-24T04:28:01.767Z,98164.69
2022-09-24T04:30:32.138Z,98166.56
2022-09-24T04:33:03.015Z,98159.28
2022-09-24T04:35:32.285Z,98173.25
2022-09-24T04:38:00.429Z,98166.06
2022-09-24T04:40:28.807Z,98165.03
2022-09-24T04:42:56.807Z,98164.00
2022-09-24T04:45:24.850Z,98161.25
2022-09-24T04:47:57.290Z,98155.97
2022-09-24T04:50:25.843Z,98172.13
2022-09-24T04:52:54.170Z,98163.50
2022-09-24T04:55:25.431Z,98170.31
2022-09-24T04:57:53.475Z,98161.41
2022-09-24T05:00:22.009Z,98171.63
2022-09-24T05:02:59.008Z,98173.41
2022-09-24T05:05:27.975Z,98175.81
2022-09-24T05:07:58.505Z,98167.97
2022-09-24T05:10:29.240Z,98172.09
2022-09-24T05:12:57.212Z,98186.34
2022-09-24T05:15:27.359Z,98183.59
2022-09-24T05:17:56.669Z,98192.66
2022-09-24T05:20:24.819Z,98183.94
2022-09-24T05:22:52.816Z,98177.00
2022-09-24T05:25:21.879Z,98181.13
2022-09-24T05:27:49.825Z,98184.75
2022-09-24T05:30:19.063Z,98184.06
2022-09-24T05:32:52.129Z,98181.22
2022-09-24T05:35:22.715Z,98183.59
2022-09-24T05:37:53.191Z,98187.22
2022-09-24T05:40:41.146Z,98184.19
2022-09-24T05:43:09.239Z,98187.09
2022-09-24T05:45:37.357Z,98193.75
2022-09-24T05:48:05.773Z,98185.94
2022-09-24T05:50:35.422Z,98200.06
2022-09-24T05:53:03.503Z,98193.88
2022-09-24T05:55:32.725Z,98189.22
2022-09-24T05:58:04.387Z,98186.28
2022-09-24T06:00:32.462Z,98186.88
2022-09-24T06:03:04.120Z,98179.56
2022-09-24T06:05:32.962Z,98192.25
2022-09-24T06:08:02.719Z,98186.28
2022-09-24T06:10:33.224Z,98181.88
2022-09-24T06:13:01.575Z,98184.56
2022-09-24T06:15:33.491Z,98196.97
2022-09-24T06:18:01.649Z,98192.44
2022-09-24T06:20:29.591Z,98203.38
2022-09-24T06:22:59.931Z,98209.28
2022-09-24T06:25:31.815Z,98213.91
2022-09-24T06:28:01.248Z,98184.88
2022-09-24T06:30:29.743Z,98218.81
2022-09-24T06:33:02.737Z,98208.41
2022-09-24T06:35:30.696Z,98196.63
2022-09-24T06:37:58.668Z,98187.94
2022-09-24T06:40:32.677Z,98181.75
2022-09-24T06:43:06.331Z,98166.88
2022-09-24T06:45:34.601Z,98168.84
2022-09-24T06:48:05.912Z,98166.75
2022-09-24T06:50:34.942Z,98170.69
2022-09-24T06:53:05.498Z,98167.69
2022-09-24T06:55:33.938Z,98159.34
2022-09-24T06:58:07.282Z,98162.81
2022-09-24T07:00:35.827Z,98161.50
2022-09-24T07:03:03.927Z,98175.16
2022-09-24T07:05:31.998Z,98167.69
2022-09-24T07:07:59.998Z,98160.22
2022-09-24T07:10:31.318Z,98166.84
2022-09-24T07:12:59.295Z,98171.41
2022-09-24T07:15:28.624Z,98174.59
2022-09-24T07:17:57.135Z,98178.97
2022-09-24T07:20:28.027Z,98175.78
2022-09-24T07:22:56.659Z,98178.84
2022-09-24T07:25:25.084Z,98178.03
2022-09-24T07:27:53.059Z,98182.22
2022-09-24T07:30:21.061Z,98192.34
2022-09-24T07:32:54.958Z,98184.13
2022-09-24T07:35:23.595Z,98187.66
2022-09-24T07:37:57.337Z,98184.47
2022-09-24T07:40:26.187Z,98188.59
2022-09-24T07:42:55.152Z,98186.38
2022-09-24T07:45:23.964Z,98190.22
2022-09-24T07:48:02.108Z,98196.63
2022-09-24T07:50:31.036Z,98202.38
2022-09-24T07:53:01.348Z,98194.78
2022-09-24T07:55:31.759Z,98208.59
2022-09-24T07:57:59.840Z,98199.28
2022-09-24T08:00:27.870Z,98197.25
2022-09-24T08:02:58.219Z,98194.25
2022-09-24T08:05:27.918Z,98191.66
2022-09-24T08:07:57.000Z,98184.78
2022-09-24T08:10:26.322Z,98188.75
2022-09-24T08:12:54.658Z,98193.22
2022-09-24T08:15:23.205Z,98173.88
2022-09-24T08:17:51.533Z,98175.72
2022-09-24T08:20:19.560Z,98176.28
2022-09-24T08:22:49.236Z,98183.19
2022-09-24T08:25:17.282Z,98170.72
2022-09-24T08:27:47.349Z,98172.00
2022-09-24T08:30:15.364Z,98177.84
2022-09-24T08:32:47.601Z,98187.72
2022-09-24T08:35:16.357Z,98195.97
2022-09-24T08:37:44.336Z,98205.72
2022-09-24T08:40:18.683Z,98204.75
2022-09-24T08:42:50.875Z,98191.31
2022-09-24T08:45:36.718Z,98183.91
2022-09-24T08:48:07.519Z,98171.09
2022-09-24T08:50:39.455Z,98176.81
2022-09-24T08:53:12.933Z,98173.47
2022-09-24T08:55:44.096Z,98181.28
2022-09-24T08:58:29.687Z,98179.88
2022-09-24T09:01:00.243Z,98172.31
2022-09-24T09:03:35.918Z,98177.19
2022-09-24T09:06:05.001Z,98182.94
2022-09-24T09:09:05.290Z,98195.53
2022-09-24T09:11:29.195Z,98187.44
2022-09-24T09:13:59.652Z,98181.63
2022-09-24T09:16:32.440Z,98188.75
2022-09-24T09:19:04.635Z,98190.00
2022-09-24T09:21:37.935Z,98188.63
2022-09-24T09:24:07.413Z,98182.75
2022-09-24T09:26:36.761Z,98184.81
2022-09-24T09:29:07.126Z,98177.88
2022-09-24T09:31:39.938Z,98172.75
2022-09-24T09:34:21.116Z,98175.69
2022-09-24T09:36:56.630Z,98170.44
2022-09-24T09:39:33.171Z,98169.13
2022-09-24T09:42:07.861Z,98161.94
2022-09-24T09:44:41.393Z,98162.06
2022-09-24T09:47:16.569Z,98154.03
2022-09-24T09:49:48.322Z,98161.63
2022-09-24T09:52:19.413Z,98152.13
2022-09-24T09:54:48.573Z,98151.38
2022-09-24T09:57:20.174Z,98153.94
2022-09-24T09:59:49.753Z,98146.38
2022-09-24T10:02:23.290Z,98146.84
2022-09-24T10:04:54.244Z,98147.81
2022-09-24T10:07:22.841Z,98141.19
2022-09-24T10:09:59.886Z,98140.63
2022-09-24T10:12:30.241Z,98146.25
2022-09-24T10:14:59.441Z,98141.09
2022-09-24T10:17:29.895Z,98132.00
2022-09-24T10:19:57.928Z,98130.03
2022-09-24T10:22:28.859Z,98142.53
2022-09-24T10:24:59.804Z,98136.72
2022-09-24T10:27:32.311Z,98138.66
2022-09-24T10:30:19.501Z,98150.41
2022-09-24T10:32:48.831Z,98141.88
2022-09-24T10:35:21.688Z,98141.41
2022-09-24T10:37:53.578Z,98131.81
2022-09-24T10:40:24.276Z,98138.53
2022-09-24T10:43:00.928Z,98143.19
2022-09-24T10:45:36.913Z,98146.09
2022-09-24T10:48:12.282Z,98148.81
2022-09-24T10:50:46.699Z,98139.28
2022-09-24T10:53:15.693Z,98140.72
2022-09-24T10:55:49.997Z,98135.03
2022-09-24T10:58:28.244Z,98139.38
2022-09-24T11:01:03.253Z,98136.31
2022-09-24T11:03:55.108Z,98127.75
2022-09-24T11:06:32.292Z,98122.81
2022-09-24T11:09:07.152Z,98126.66
2022-09-24T11:11:42.365Z,98125.81
2022-09-24T11:14:21.233Z,98130.22
2022-09-24T11:17:07.155Z,98129.94
2022-09-24T11:19:47.121Z,98133.16
2022-09-24T11:22:20.676Z,98134.56
2022-09-24T11:25:04.644Z,98130.63
2022-09-24T11:27:42.899Z,98134.81
2022-09-24T11:30:15.816Z,98128.47
2022-09-24T11:32:52.326Z,98123.63
2022-09-24T11:35:27.238Z,98122.00
2022-09-24T11:38:00.330Z,98132.06
2022-09-24T11:40:38.766Z,98139.41
2022-09-24T11:43:16.468Z,98133.47
2022-09-24T11:45:53.918Z,98140.84
2022-09-24T11:48:34.783Z,98132.13
2022-09-24T11:51:10.702Z,98141.53
2022-09-24T11:53:41.154Z,98133.09
2022-09-24T11:56:14.269Z,98149.03
2022-09-24T11:58:45.373Z,98157.63
2022-09-24T12:01:17.052Z,98167.34
2022-09-24T12:03:48.102Z,98172.22
2022-09-24T12:06:18.998Z,98173.31
2022-09-24T12:08:49.619Z,98168.16
2022-09-24T12:11:20.737Z,98175.69
2022-09-24T12:13:52.178Z,98171.63
2022-09-24T12:16:23.075Z,98162.59
2022-09-24T12:18:55.748Z,98168.63
2022-09-24T12:21:28.019Z,98158.50
2022-09-24T12:24:03.325Z,98166.22
2022-09-24T12:26:32.533Z,98173.94
2022-09-24T12:29:20.860Z,98165.69
2022-09-24T12:32:13.628Z,98178.47
2022-09-24T12:34:45.561Z,98179.16
2022-09-24T12:37:16.735Z,98180.81
2022-09-24T12:39:48.695Z,98178.13
2022-09-24T12:42:20.119Z,98172.13
2022-09-24T12:44:50.750Z,98161.34
2022-09-24T12:47:21.901Z,98161.69
2022-09-24T12:49:52.367Z,98161.28
2022-09-24T12:52:25.533Z,98157.13
2022-09-24T12:54:59.036Z,98150.25
2022-09-24T12:57:28.723Z,98143.19
2022-09-24T12:59:57.955Z,98134.00
2022-09-24T13:02:29.339Z,98119.84
2022-09-24T13:05:17.422Z,98113.56
2022-09-24T13:07:55.861Z,98111.09
2022-09-24T13:10:24.967Z,98110.84
2022-09-24T13:12:53.073Z,98118.19
2022-09-24T13:15:28.381Z,98110.00
2022-09-24T13:18:06.048Z,98114.94
2022-09-24T13:20:36.138Z,98113.56
2022-09-24T13:23:14.458Z,98122.25
2022-09-24T13:25:42.570Z,98130.03
2022-09-24T13:28:25.266Z,98137.13
2022-09-24T13:30:56.509Z,98135.72
2022-09-24T13:33:31.903Z,98135.69
2022-09-24T13:36:06.304Z,98135.28
2022-09-24T13:38:36.340Z,98126.63
2022-09-24T13:41:06.896Z,98111.94
2022-09-24T13:43:39.605Z,98123.09
2022-09-24T13:46:11.544Z,98110.59
2022-09-24T13:48:43.358Z,98109.19
2022-09-24T13:51:12.932Z,98117.66
2022-09-24T13:53:43.140Z,98123.06
2022-09-24T13:56:14.257Z,98123.13
2022-09-24T13:58:43.748Z,98119.28
2022-09-24T14:01:13.451Z,98110.00
2022-09-24T14:03:43.652Z,98115.56
2022-09-24T14:06:12.971Z,98133.41
2022-09-24T14:08:42.445Z,98128.41
2022-09-24T14:11:16.494Z,98134.41
2022-09-24T14:13:45.814Z,98130.97
2022-09-24T14:16:15.772Z,98136.09
2022-09-24T14:18:45.758Z,98130.97
2022-09-24T14:21:16.026Z,98128.81
2022-09-24T14:23:48.751Z,98120.88
2022-09-24T14:26:23.099Z,98116.56
2022-09-24T14:28:51.250Z,98124.94
2022-09-24T14:31:19.395Z,98126.59
2022-09-24T14:33:48.858Z,98121.69
2022-09-24T14:36:17.133Z,98129.06
2022-09-24T14:38:53.608Z,98118.75
2022-09-24T14:41:23.813Z,98114.94
2022-09-24T14:43:56.146Z,98114.09
2022-09-24T14:46:27.361Z,98108.94
2022-09-24T14:49:06.478Z,98102.91
2022-09-24T14:51:36.768Z,98104.56
2022-09-24T14:54:19.950Z,98112.16
2022-09-24T14:56:48.008Z,98114.88
2022-09-24T14:59:17.680Z,98117.59
2022-09-24T15:01:45.926Z,98115.38
2022-09-24T15:04:21.411Z,98112.94
2022-09-24T15:06:49.453Z,98090.91
2022-09-24T15:09:25.003Z,98107.22
2022-09-24T15:11:55.292Z,98108.53
2022-09-24T15:14:32.850Z,98086.69
2022-09-24T15:17:10.394Z,98119.09
2022-09-24T15:19:43.877Z,98122.34
2022-09-24T15:22:11.896Z,98123.28
2022-09-24T15:24:39.925Z,98112.19
2022-09-24T15:27:16.108Z,98106.72
2022-09-24T15:29:44.144Z,98110.00
2022-09-24T15:32:15.448Z,98103.22
2022-09-24T15:34:44.977Z,98096.66
2022-09-24T15:37:13.969Z,98101.81
2022-09-24T15:39:48.463Z,98115.44
2022-09-24T15:42:17.041Z,98116.47
2022-09-24T15:44:45.869Z,98113.19
2022-09-24T15:47:16.297Z,98111.25
2022-09-24T15:49:45.855Z,98125.47
2022-09-24T15:52:15.623Z,98122.75
2022-09-24T15:54:43.623Z,98121.13
2022-09-24T15:57:13.055Z,98109.47
2022-09-24T15:59:41.065Z,98108.63
2022-09-24T16:02:16.682Z,98099.63
2022-09-24T16:04:46.265Z,98113.19
2022-09-24T16:07:14.392Z,98122.91
2022-09-24T16:09:45.121Z,98122.59
2022-09-24T16:12:14.902Z,98125.91
2022-09-24T16:14:45.330Z,98124.16
2022-09-24T16:17:13.357Z,98115.09
2022-09-24T16:19:43.411Z,98115.69
2022-09-24T16:22:15.714Z,98107.78
2022-09-24T16:24:46.188Z,98112.13
2022-09-24T16:27:14.238Z,98100.19
2022-09-24T16:29:42.231Z,98106.19
2022-09-24T16:32:10.626Z,98107.78
2022-09-24T16:34:38.602Z,98112.94
2022-09-24T16:37:06.660Z,98118.00
2022-09-24T16:39:36.205Z,98127.53
2022-09-24T16:42:04.377Z,98133.78
2022-09-24T16:44:34.647Z,98137.81
2022-09-24T16:47:02.682Z,98140.94
2022-09-24T16:49:30.721Z,98150.41
2022-09-24T16:51:58.717Z,98152.91
2022-09-24T16:54:29.472Z,98154.09
2022-09-24T16:56:58.980Z,98149.94
2022-09-24T16:59:27.065Z,98156.16
2022-09-24T17:01:55.131Z,98168.28
2022-09-24T17:04:23.196Z,98175.31
2022-09-24T17:06:51.188Z,98173.34
2022-09-24T17:09:36.747Z,98174.28
2022-09-24T17:12:06.368Z,98184.03
2022-09-24T17:14:34.370Z,98176.50
2022-09-24T17:17:02.395Z,98155.06
2022-09-24T17:19:30.348Z,98176.41
2022-09-24T17:21:58.933Z,98183.97
2022-09-24T17:24:26.968Z,98166.09
2022-09-24T17:26:56.514Z,98185.59
2022-09-24T17:29:31.230Z,98197.44
2022-09-24T17:31:59.800Z,98205.50
2022-09-24T17:34:28.054Z,98213.53
2022-09-24T17:36:56.473Z,98216.50
2022-09-24T17:39:24.698Z,98218.47
2022-09-24T17:41:52.712Z,98222.63
2022-09-24T17:44:20.735Z,98217.50
2022-09-24T17:46:50.122Z,98216.19
2022-09-24T17:49:18.291Z,98219.25
2022-09-24T17:51:49.404Z,98223.22
2022-09-24T17:54:18.950Z,98225.28
2022-09-24T17:56:46.971Z,98223.59
2022-09-24T17:59:15.452Z,98228.16
2022-09-24T18:01:46.270Z,98217.84
2022-09-24T18:04:16.795Z,98216.81
2022-09-24T18:06:45.392Z,98217.44
2022-09-24T18:09:14.120Z,98213.66
2022-09-24T18:11:45.464Z,98217.84
2022-09-24T18:14:15.429Z,98208.69
2022-09-24T18:16:43.675Z,98207.66
2022-09-24T18:19:12.289Z,98232.59
2022-09-24T18:21:41.855Z,98229.41
2022-09-24T18:24:10.636Z,98237.47
2022-09-24T18:26:40.177Z,98242.88
2022-09-24T18:29:10.215Z,98237.00
2022-09-24T18:31:39.007Z,98245.13
2022-09-24T18:34:08.415Z,98245.94
2022-09-24T18:36:39.827Z,98239.09
2022-09-24T18:39:12.045Z,98250.78
2022-09-24T18:41:40.113Z,98252.06
2022-09-24T18:44:09.005Z,98258.50
2022-09-24T18:46:37.337Z,98240.06
2022-09-24T18:49:06.286Z,98246.97
2022-09-24T18:51:35.224Z,98241.44
2022-09-24T18:54:04.778Z,98248.50
2022-09-24T18:56:34.472Z,98244.44
2022-09-24T18:59:08.495Z,98240.50
2022-09-24T19:01:37.927Z,98228.56
2022-09-24T19:04:10.718Z,98217.91
2022-09-24T19:06:39.786Z,98214.66
2022-09-24T19:09:08.533Z,98222.44
2022-09-24T19:11:38.476Z,98212.06
2022-09-24T19:14:06.547Z,98209.88
2022-09-24T19:16:34.832Z,98203.34
2022-09-24T19:19:11.192Z,98196.88
2022-09-24T19:21:40.511Z,98201.66
2022-09-24T19:24:09.796Z,98196.19
2022-09-24T19:26:39.255Z,98199.41
2022-09-24T19:29:07.405Z,98198.50
2022-09-24T19:31:36.927Z,98194.50
2022-09-24T19:34:05.708Z,98200.19
2022-09-24T19:36:42.909Z,98195.34
2022-09-24T19:39:12.046Z,98197.84
2022-09-24T19:41:41.434Z,98189.00
2022-09-24T19:44:10.716Z,98194.69
2022-09-24T19:46:39.267Z,98198.28
2022-09-24T19:49:07.588Z,98192.53
2022-09-24T19:51:36.578Z,98190.19
2022-09-24T19:54:06.324Z,98198.97
2022-09-24T19:56:34.962Z,98186.22
2022-09-24T19:59:05.064Z,98193.63
2022-09-24T20:01:34.262Z,98208.59
2022-09-24T20:04:04.038Z,98216.47
2022-09-24T20:06:33.871Z,98214.88
2022-09-24T20:09:02.077Z,98211.91
2022-09-24T20:11:32.344Z,98209.16
2022-09-24T20:14:01.137Z,98200.19
2022-09-24T20:16:34.296Z,98215.16
2022-09-24T20:19:03.252Z,98216.72
2022-09-24T20:21:34.347Z,98219.03
2022-09-24T20:24:06.162Z,98233.31
2022-09-24T20:26:51.893Z,98247.91
2022-09-24T20:29:21.561Z,98247.91
2022-09-24T20:31:55.332Z,98240.44
2022-09-24T20:34:24.776Z,98231.47
2022-09-24T20:36:53.177Z,98220.31
2022-09-24T20:39:21.656Z,98229.00
2022-09-24T20:41:51.700Z,98233.81
2022-09-24T20:44:21.398Z,98234.38
2022-09-24T20:46:49.391Z,98232.59
2022-09-24T20:49:22.314Z,98240.00
2022-09-24T20:51:56.232Z,98253.78
2022-09-24T20:54:25.431Z,98249.91
2022-09-24T20:56:54.532Z,98254.19
2022-09-24T20:59:22.751Z,98245.25
2022-09-24T21:01:50.978Z,98242.91
2022-09-24T21:04:20.647Z,98234.69
2022-09-24T21:06:50.015Z,98229.72
2022-09-24T21:09:18.093Z,98226.84
2022-09-24T21:11:46.114Z,98225.38
2022-09-24T21:14:14.688Z,98227.69
2022-09-24T21:16:42.788Z,98227.94
2022-09-24T21:19:12.378Z,98231.13
2022-09-24T21:21:41.928Z,98232.94
2022-09-24T21:24:13.979Z,98234.16
2022-09-24T21:26:42.483Z,98241.19
2022-09-24T21:29:12.912Z,98237.47
2022-09-24T21:31:44.141Z,98239.09
2022-09-24T21:34:12.520Z,98238.53
2022-09-24T21:36:45.551Z,98243.78
2022-09-24T21:39:15.537Z,98233.69
2022-09-24T21:41:44.017Z,98239.41
2022-09-24T21:44:14.073Z,98230.59
2022-09-24T21:46:43.700Z,98236.84
2022-09-24T21:49:12.321Z,98230.34
2022-09-24T21:51:41.076Z,98232.22
2022-09-24T21:54:13.997Z,98238.38
2022-09-24T21:56:41.988Z,98235.03
2022-09-24T22:02:43.181Z,98234.41
2022-09-24T22:05:11.616Z,98239.25
2022-09-24T22:07:39.971Z,98236.22
2022-09-24T22:10:08.396Z,98241.38
2022-09-24T22:12:37.073Z,98242.25
2022-09-24T22:15:05.379Z,98244.91
2022-09-24T22:17:33.384Z,98237.84
2022-09-24T22:20:02.924Z,98233.56
2022-09-24T22:22:30.932Z,98243.78
2022-09-24T22:24:58.927Z,98242.84
2022-09-24T22:27:26.867Z,98233.72
2022-09-24T22:29:54.818Z,98238.75
2022-09-24T22:32:22.849Z,98235.63
2022-09-24T22:35:08.221Z,98240.31
2022-09-24T22:37:38.078Z,98243.78
2022-09-24T22:40:06.491Z,98252.22
2022-09-24T22:42:34.474Z,98259.19
2022-09-24T22:45:02.497Z,98263.66
2022-09-24T22:47:32.529Z,98257.75
2022-09-24T22:50:00.513Z,98260.22
2022-09-24T22:52:30.555Z,98267.19
2022-09-24T22:55:01.979Z,98268.00
2022-09-24T22:57:29.953Z,98260.94
2022-09-24T23:00:01.252Z,98269.56
2022-09-24T23:02:31.647Z,98267.19
2022-09-24T23:04:59.664Z,98256.56
2022-09-24T23:07:27.796Z,98260.28
2022-09-24T23:09:55.735Z,98258.66
2022-09-24T23:12:25.044Z,98256.81
2022-09-24T23:14:53.581Z,98257.31
2022-09-24T23:17:21.533Z,98261.09
2022-09-24T23:19:52.657Z,98266.94
2022-09-24T23:22:22.010Z,98275.06
2022-09-24T23:24:51.500Z,98266.44
2022-09-24T23:27:20.162Z,98261.66
2022-09-24T23:29:52.024Z,98268.59
2022-09-24T23:32:21.286Z,98262.66
2022-09-24T23:34:49.237Z,98260.19
2022-09-24T23:37:17.340Z,98258.72
2022-09-24T23:39:45.287Z,98248.22
2022-09-24T23:42:15.597Z,98251.50
2022-09-24T23:44:45.262Z,98253.28
2022-09-24T23:47:14.734Z,98247.38
2022-09-24T23:49:42.731Z,98260.34
2022-09-24T23:52:10.878Z,98259.81
2022-09-24T23:54:39.599Z,98248.03
2022-09-24T23:57:07.547Z,98249.84
2022-09-24T23:59:35.499Z,98247.38
